Time,TemperatureF,DewpointF,PressureIn,WindDirection,WindDirectionDegrees,WindSpeedMPH,WindSpeedGustMPH,Humidity,HourlyPrecipIn,Conditions,Clouds,dailyrainin,SoftwareType,DateUTC
2013-03-07 00:01:00,54.0,50.0,30.02,SSW,206,0.0,0.0,86,0.00,,,0.00,,2013-03-07 08:01:00,
2013-03-07 00:11:00,54.0,50.0,30.02,SSW,206,0.0,0.0,86,0.00,,,0.00,,2013-03-07 08:11:00,
2013-03-07 00:21:00,54.0,50.0,30.01,SSW,206,0.0,0.0,86,0.00,,,0.00,,2013-03-07 08:21:00,
2013-03-07 00:31:00,54.0,50.0,30.02,SSW,206,0.0,0.0,86,0.00,,,0.00,,2013-03-07 08:31:00,
2013-03-07 00:43:00,54.0,50.0,30.02,SSW,206,0.0,0.0,86,0.00,,,0.00,,2013-03-07 08:43:00,
2013-03-07 00:53:00,54.0,50.0,30.02,SSW,206,0.0,0.0,86,0.00,,,0.00,,2013-03-07 08:53:00,
2013-03-07 01:01:00,54.0,50.0,30.02,SSW,206,0.0,0.0,86,0.00,,,0.00,,2013-03-07 09:01:00,
2013-03-07 01:11:00,54.0,50.0,30.02,SSW,206,0.0,0.0,86,0.00,,,0.00,,2013-03-07 09:11:00,
2013-03-07 01:21:00,54.0,50.0,30.02,SSW,206,0.0,0.0,86,0.00,,,0.00,,2013-03-07 09:21:00,
2013-03-07 01:31:00,54.0,50.0,30.02,SSW,206,0.0,0.0,86,0.00,,,0.00,,2013-03-07 09:31:00,
2013-03-07 01:41:00,54.0,50.0,30.02,SSW,206,0.0,0.0,86,0.00,,,0.00,,2013-03-07 09:41:00,
2013-03-07 01:52:00,54.0,50.0,30.02,SSW,206,0.0,0.0,86,0.00,,,0.00,,2013-03-07 09:52:00,
2013-03-07 02:01:00,54.0,50.0,30.01,SSW,206,0.0,0.0,86,0.00,,,0.00,,2013-03-07 10:01:00,
2013-03-07 02:11:00,54.0,50.0,30.01,SSW,206,0.0,0.0,86,0.00,,,0.00,,2013-03-07 10:11:00,
2013-03-07 02:21:00,54.0,50.0,30.01,SSW,206,0.0,0.0,87,0.00,,,0.00,,2013-03-07 10:21:00,
2013-03-07 02:31:00,54.0,50.0,30.01,SSW,206,0.0,0.0,87,0.00,,,0.00,,2013-03-07 10:31:00,
2013-03-07 02:41:00,54.0,50.0,30.01,SSW,206,0.0,0.0,87,0.00,,,0.00,,2013-03-07 10:41:00,
2013-03-07 02:52:00,54.0,50.0,30.01,SSW,206,0.0,0.0,86,0.00,,,0.00,,2013-03-07 10:52:00,
2013-03-07 03:01:00,54.0,50.0,30.00,SSW,206,0.0,0.0,86,0.00,,,0.00,,2013-03-07 11:01:00,
2013-03-07 03:11:00,54.0,50.0,30.00,SSW,206,0.0,0.0,86,0.00,,,0.00,,2013-03-07 11:11:00,
2013-03-07 03:21:00,54.0,50.0,30.00,SSW,206,0.0,0.0,86,0.00,,,0.00,,2013-03-07 11:21:00,
2013-03-07 03:32:00,54.0,50.0,30.00,SSW,206,0.0,0.0,86,0.00,,,0.00,,2013-03-07 11:32:00,
2013-03-07 03:41:00,54.0,50.0,30.00,SSW,206,0.0,0.0,86,0.00,,,0.00,,2013-03-07 11:41:00,
2013-03-07 03:53:00,54.0,50.0,30.00,SSW,206,0.0,0.0,86,0.00,,,0.00,,2013-03-07 11:53:00,
2013-03-07 04:01:00,53.0,49.0,29.99,SSW,206,0.0,0.0,86,0.00,,,0.00,,2013-03-07 12:01:00,
2013-03-07 04:11:00,53.0,49.0,29.99,SSW,206,0.0,0.0,86,0.00,,,0.00,,2013-03-07 12:11:00,
2013-03-07 04:21:00,53.0,49.0,29.99,SSW,206,0.0,0.0,86,0.00,,,0.00,,2013-03-07 12:21:00,
2013-03-07 04:32:00,53.0,49.0,29.99,SSW,206,0.0,0.0,86,0.00,,,0.00,,2013-03-07 12:32:00,
2013-03-07 04:41:00,53.0,49.0,29.99,SSW,206,0.0,0.0,86,0.00,,,0.00,,2013-03-07 12:41:00,
2013-03-07 04:52:00,53.0,49.0,29.99,SSW,206,0.0,0.0,86,0.00,,,0.00,,2013-03-07 12:52:00,
2013-03-07 05:01:00,53.0,49.0,29.99,SSW,206,0.0,0.0,86,0.00,,,0.00,,2013-03-07 13:01:00,
2013-03-07 05:11:00,53.0,49.0,29.99,SSW,206,0.0,0.0,86,0.00,,,0.00,,2013-03-07 13:11:00,
2013-03-07 05:21:00,53.0,49.0,29.99,SSW,206,0.0,0.0,87,0.00,,,0.00,,2013-03-07 13:21:00,
2013-03-07 05:31:00,52.0,48.0,29.99,SSW,206,0.0,0.0,87,0.00,,,0.00,,2013-03-07 13:31:00,
2013-03-07 05:41:00,52.0,48.0,29.99,SSW,206,0.0,0.0,87,0.00,,,0.00,,2013-03-07 13:41:00,
2013-03-07 05:53:00,52.0,48.0,30.00,SSW,206,0.0,0.0,87,0.00,,,0.00,,2013-03-07 13:53:00,
2013-03-07 06:01:00,52.0,48.0,29.99,SSW,206,0.0,0.0,87,0.00,,,0.00,,2013-03-07 14:01:00,
2013-03-07 06:11:00,52.0,48.0,29.99,SSW,206,0.0,0.0,87,0.00,,,0.00,,2013-03-07 14:11:00,
2013-03-07 06:21:00,52.0,49.0,29.99,SSW,206,0.0,0.0,88,0.00,,,0.00,,2013-03-07 14:21:00,
2013-03-07 06:31:00,51.0,48.0,29.99,SSW,206,0.0,0.0,88,0.00,,,0.00,,2013-03-07 14:31:00,
2013-03-07 06:41:00,51.0,48.0,29.99,SSW,206,0.0,0.0,88,0.00,,,0.00,,2013-03-07 14:41:00,
2013-03-07 06:53:00,51.0,48.0,29.99,SSW,206,0.0,0.0,88,0.00,,,0.00,,2013-03-07 14:53:00,
2013-03-07 07:01:00,51.0,48.0,30.00,SSW,206,0.0,0.0,88,0.00,,,0.00,,2013-03-07 15:01:00,
2013-03-07 07:11:00,51.0,48.0,30.00,SSW,206,0.0,0.0,88,0.00,,,0.00,,2013-03-07 15:11:00,
2013-03-07 07:21:00,51.0,48.0,30.00,SSW,206,0.0,0.0,88,0.00,,,0.00,,2013-03-07 15:21:00,
2013-03-07 07:31:00,52.0,49.0,30.01,SSW,206,0.0,0.0,88,0.00,,,0.00,,2013-03-07 15:31:00,
2013-03-07 07:41:00,52.0,49.0,30.01,SSW,206,0.0,0.0,88,0.00,,,0.00,,2013-03-07 15:41:00,
2013-03-07 07:52:00,52.0,49.0,30.01,SSW,206,0.0,0.0,88,0.00,,,0.00,,2013-03-07 15:52:00,
2013-03-07 08:01:00,53.0,50.0,30.02,SSW,206,0.0,0.0,89,0.00,,,0.00,,2013-03-07 16:01:00,
2013-03-07 08:11:00,53.0,50.0,30.02,SSW,206,0.0,0.0,89,0.00,,,0.00,,2013-03-07 16:11:00,
2013-03-07 08:21:00,54.0,51.0,30.02,SSW,206,0.0,0.0,88,0.00,,,0.00,,2013-03-07 16:21:00,
2013-03-07 08:31:00,54.0,51.0,30.02,SSW,206,0.0,0.0,88,0.00,,,0.00,,2013-03-07 16:31:00,
2013-03-07 08:41:00,54.0,51.0,30.02,SSW,206,0.0,0.0,88,0.00,,,0.00,,2013-03-07 16:41:00,
2013-03-07 08:52:00,55.0,51.0,30.01,SSW,206,0.0,0.0,87,0.00,,,0.00,,2013-03-07 16:52:00,
2013-03-07 09:11:00,56.0,52.0,30.01,SSW,206,0.0,0.0,87,0.00,,,0.00,,2013-03-07 17:11:00,
2013-03-07 09:21:00,56.0,52.0,30.01,SSW,206,0.0,0.0,85,0.00,,,0.00,,2013-03-07 17:21:00,
2013-03-07 09:31:00,57.0,52.0,30.01,SSW,206,0.0,0.0,84,0.00,,,0.00,,2013-03-07 17:31:00,
2013-03-07 09:41:00,57.0,52.0,30.01,SSW,206,0.0,0.0,84,0.00,,,0.00,,2013-03-07 17:41:00,
2013-03-07 09:53:00,57.0,52.0,30.00,SSW,206,0.0,0.0,83,0.00,,,0.00,,2013-03-07 17:53:00,
2013-03-07 10:01:00,58.0,52.0,30.00,SSW,206,0.0,0.0,80,0.00,,,0.00,,2013-03-07 18:01:00,
2013-03-07 10:11:00,58.0,52.0,30.00,SSW,206,0.0,0.0,80,0.00,,,0.00,,2013-03-07 18:11:00,
2013-03-07 10:21:00,58.0,52.0,29.99,SSW,206,0.0,0.0,80,0.00,,,0.00,,2013-03-07 18:21:00,
2013-03-07 10:31:00,60.0,52.0,29.99,East,100,0.0,2.0,74,0.00,,,0.00,,2013-03-07 18:31:00,
2013-03-07 10:41:00,60.0,52.0,29.99,East,100,0.0,2.0,74,0.00,,,0.00,,2013-03-07 18:41:00,
2013-03-07 10:52:00,60.0,51.0,30.00,East,100,0.0,0.0,73,0.00,,,0.00,,2013-03-07 18:52:00,
2013-03-07 11:11:00,58.0,50.0,30.00,South,182,4.0,14.0,76,0.00,,,0.00,,2013-03-07 19:11:00,
2013-03-07 11:21:00,58.0,50.0,30.00,South,182,4.0,14.0,76,0.00,,,0.00,,2013-03-07 19:21:00,
2013-03-07 11:31:00,57.0,50.0,30.00,ENE,65,0.0,8.0,78,0.00,,,0.00,,2013-03-07 19:31:00,
2013-03-07 11:42:00,57.0,50.0,30.00,ENE,65,0.0,8.0,78,0.00,,,0.00,,2013-03-07 19:42:00,
2013-03-07 11:52:00,58.0,51.0,29.99,SE,127,0.0,0.0,77,0.00,,,0.00,,2013-03-07 19:52:00,
2013-03-07 12:01:00,58.0,51.0,29.99,South,170,0.0,8.0,77,0.00,,,0.00,,2013-03-07 20:01:00,
2013-03-07 12:11:00,58.0,51.0,29.99,South,170,0.0,8.0,77,0.00,,,0.00,,2013-03-07 20:11:00,
2013-03-07 12:21:00,59.0,51.0,29.99,SSW,211,5.0,10.0,74,0.00,,,0.00,,2013-03-07 20:21:00,
2013-03-07 12:31:00,59.0,50.0,29.98,South,183,5.0,7.0,73,0.00,,,0.00,,2013-03-07 20:31:00,
2013-03-07 12:41:00,59.0,50.0,29.98,South,183,5.0,7.0,73,0.00,,,0.00,,2013-03-07 20:41:00,
2013-03-07 12:53:00,61.0,50.0,29.98,SW,214,5.0,9.0,68,0.00,,,0.00,,2013-03-07 20:53:00,
2013-03-07 13:01:00,61.0,50.0,29.97,SSW,197,5.0,10.0,67,0.00,,,0.00,,2013-03-07 21:01:00,
2013-03-07 13:11:00,61.0,50.0,29.97,SSW,197,5.0,10.0,67,0.00,,,0.00,,2013-03-07 21:11:00,
2013-03-07 13:21:00,62.0,50.0,29.96,South,187,0.0,0.0,65,0.00,,,0.00,,2013-03-07 21:21:00,
2013-03-07 13:31:00,61.0,49.0,29.96,SW,221,11.0,13.0,65,0.00,,,0.00,,2013-03-07 21:31:00,
2013-03-07 13:41:00,61.0,49.0,29.96,SW,221,11.0,13.0,65,0.00,,,0.00,,2013-03-07 21:41:00,
2013-03-07 13:52:00,61.0,49.0,29.95,South,175,0.0,10.0,65,0.00,,,0.00,,2013-03-07 21:52:00,
2013-03-07 14:01:00,61.0,49.0,29.94,South,182,0.0,7.0,65,0.00,,,0.00,,2013-03-07 22:01:00,
2013-03-07 14:11:00,61.0,49.0,29.94,South,182,0.0,7.0,65,0.00,,,0.00,,2013-03-07 22:11:00,
2013-03-07 14:21:00,62.0,50.0,29.94,SSW,193,0.0,0.0,64,0.00,,,0.00,,2013-03-07 22:21:00,
2013-03-07 14:31:00,62.0,49.0,29.93,South,190,0.0,10.0,63,0.00,,,0.00,,2013-03-07 22:31:00,
2013-03-07 14:41:00,62.0,49.0,29.93,South,190,0.0,10.0,63,0.00,,,0.00,,2013-03-07 22:41:00,
2013-03-07 14:53:00,62.0,49.0,29.94,SW,218,5.0,11.0,62,0.00,,,0.00,,2013-03-07 22:53:00,
2013-03-07 15:01:00,62.0,48.0,29.94,SW,217,10.0,10.0,61,0.00,,,0.00,,2013-03-07 23:01:00,
2013-03-07 15:11:00,62.0,48.0,29.94,SW,217,10.0,10.0,61,0.00,,,0.00,,2013-03-07 23:11:00,
2013-03-07 15:21:00,62.0,48.0,29.93,SSW,212,0.0,0.0,61,0.00,,,0.00,,2013-03-07 23:21:00,
2013-03-07 15:31:00,62.0,48.0,29.93,South,188,6.0,13.0,61,0.00,,,0.00,,2013-03-07 23:31:00,
2013-03-07 15:53:00,62.0,49.0,29.93,SSW,205,5.0,11.0,62,0.00,,,0.00,,2013-03-07 23:53:00,
2013-03-07 16:01:00,62.0,48.0,29.93,SW,235,0.0,8.0,61,0.00,,,0.00,,2013-03-08 00:01:00,
2013-03-07 16:11:00,62.0,48.0,29.93,SW,235,0.0,8.0,61,0.00,,,0.00,,2013-03-08 00:11:00,
2013-03-07 16:31:00,60.0,47.0,29.92,SW,229,0.0,0.0,63,0.00,,,0.00,,2013-03-08 00:31:00,
2013-03-07 16:42:00,60.0,47.0,29.92,SW,229,0.0,0.0,63,0.00,,,0.00,,2013-03-08 00:42:00,
2013-03-07 16:53:00,59.0,48.0,29.93,ENE,59,0.0,0.0,66,0.00,,,0.00,,2013-03-08 00:53:00,
2013-03-07 17:01:00,59.0,48.0,29.92,SSW,202,5.0,9.0,66,0.00,,,0.00,,2013-03-08 01:01:00,
2013-03-07 17:11:00,59.0,48.0,29.92,SSW,202,5.0,9.0,66,0.00,,,0.00,,2013-03-08 01:11:00,
2013-03-07 17:21:00,58.0,47.0,29.92,SE,145,0.0,4.0,68,0.00,,,0.00,,2013-03-08 01:21:00,
2013-03-07 17:31:00,58.0,47.0,29.92,SSW,196,0.0,4.0,68,0.00,,,0.00,,2013-03-08 01:31:00,
2013-03-07 17:41:00,58.0,47.0,29.92,SSW,196,0.0,4.0,68,0.00,,,0.00,,2013-03-08 01:41:00,
2013-03-07 17:52:00,57.0,47.0,29.92,South,170,0.0,0.0,69,0.00,,,0.00,,2013-03-08 01:52:00,
2013-03-07 18:01:00,57.0,47.0,29.92,South,170,0.0,0.0,70,0.00,,,0.00,,2013-03-08 02:01:00,
2013-03-07 18:11:00,57.0,48.0,29.92,South,170,0.0,0.0,71,0.00,,,0.00,,2013-03-08 02:11:00,
2013-03-07 18:21:00,57.0,48.0,29.92,South,170,0.0,0.0,71,0.00,,,0.00,,2013-03-08 02:21:00,
2013-03-07 18:31:00,57.0,48.0,29.92,South,170,0.0,0.0,73,0.00,,,0.00,,2013-03-08 02:31:00,
2013-03-07 18:41:00,57.0,48.0,29.92,South,170,0.0,0.0,73,0.00,,,0.00,,2013-03-08 02:41:00,
2013-03-07 18:52:00,57.0,49.0,29.92,South,170,0.0,0.0,75,0.00,,,0.00,,2013-03-08 02:52:00,
2013-03-07 19:01:00,56.0,49.0,29.92,South,170,0.0,0.0,76,0.02,,,0.02,,2013-03-08 03:01:00,
2013-03-07 19:11:00,56.0,49.0,29.92,South,170,0.0,0.0,76,0.02,,,0.02,,2013-03-08 03:11:00,
2013-03-07 19:21:00,56.0,49.0,29.92,South,170,0.0,0.0,78,0.04,,,0.04,,2013-03-08 03:21:00,
2013-03-07 19:31:00,55.0,49.0,29.92,South,170,0.0,0.0,79,0.05,,,0.05,,2013-03-08 03:31:00,
2013-03-07 19:41:00,55.0,49.0,29.92,South,170,0.0,0.0,79,0.05,,,0.05,,2013-03-08 03:41:00,
2013-03-07 19:52:00,55.0,49.0,29.92,South,170,0.0,0.0,81,0.07,,,0.07,,2013-03-08 03:52:00,
2013-03-07 20:01:00,55.0,50.0,29.92,South,170,0.0,0.0,82,0.08,,,0.09,,2013-03-08 04:01:00,
2013-03-07 20:11:00,55.0,50.0,29.91,South,170,0.0,0.0,82,0.07,,,0.11,,2013-03-08 04:11:00,
2013-03-07 20:21:00,55.0,50.0,29.91,South,170,0.0,0.0,82,0.07,,,0.11,,2013-03-08 04:21:00,
2013-03-07 20:31:00,55.0,50.0,29.91,South,170,0.0,0.0,83,0.07,,,0.11,,2013-03-08 04:31:00,
2013-03-07 20:42:00,55.0,50.0,29.91,South,170,0.0,0.0,83,0.07,,,0.11,,2013-03-08 04:42:00,
2013-03-07 20:52:00,54.0,49.0,29.91,South,170,0.0,0.0,83,0.05,,,0.12,,2013-03-08 04:52:00,
2013-03-07 21:01:00,54.0,49.0,29.91,South,170,0.0,0.0,84,0.05,,,0.13,,2013-03-08 05:01:00,
2013-03-07 21:11:00,54.0,49.0,29.91,South,170,0.0,0.0,84,0.05,,,0.13,,2013-03-08 05:11:00,
2013-03-07 21:22:00,53.0,48.0,29.91,South,170,0.0,0.0,84,0.04,,,0.15,,2013-03-08 05:22:00,
2013-03-07 21:31:00,53.0,48.0,29.90,South,170,0.0,0.0,84,0.04,,,0.15,,2013-03-08 05:31:00,
2013-03-07 21:42:00,53.0,48.0,29.90,South,170,0.0,0.0,84,0.04,,,0.15,,2013-03-08 05:42:00,
2013-03-07 21:52:00,53.0,48.0,29.90,South,170,0.0,0.0,84,0.04,,,0.16,,2013-03-08 05:52:00,
2013-03-07 22:01:00,52.0,47.0,29.90,South,170,0.0,0.0,84,0.04,,,0.16,,2013-03-08 06:01:00,
2013-03-07 22:11:00,52.0,47.0,29.90,South,170,0.0,0.0,84,0.04,,,0.16,,2013-03-08 06:11:00,
2013-03-07 22:21:00,52.0,47.0,29.88,South,170,0.0,0.0,84,0.03,,,0.17,,2013-03-08 06:21:00,
2013-03-07 22:31:00,52.0,48.0,29.88,South,170,0.0,0.0,85,0.02,,,0.17,,2013-03-08 06:31:00,
2013-03-07 22:41:00,52.0,48.0,29.88,South,170,0.0,0.0,85,0.02,,,0.17,,2013-03-08 06:41:00,
2013-03-07 22:52:00,52.0,48.0,29.88,South,170,0.0,0.0,86,0.04,,,0.20,,2013-03-08 06:52:00,
2013-03-07 23:01:00,52.0,48.0,29.88,South,170,0.0,0.0,86,0.07,,,0.23,,2013-03-08 07:01:00,
2013-03-07 23:11:00,52.0,48.0,29.88,South,170,0.0,0.0,86,0.07,,,0.23,,2013-03-08 07:11:00,
2013-03-07 23:21:00,52.0,48.0,29.87,South,170,0.0,0.0,87,0.16,,,0.32,,2013-03-08 07:21:00,
2013-03-07 23:31:00,51.0,47.0,29.86,East,94,0.0,0.0,87,0.21,,,0.37,,2013-03-08 07:31:00,
2013-03-07 23:41:00,51.0,47.0,29.86,East,94,0.0,0.0,87,0.21,,,0.37,,2013-03-08 07:41:00,
2013-03-07 23:52:00,51.0,47.0,29.85,ESE,111,0.0,0.0,87,0.29,,,0.45,,2013-03-08 07:52:00,